1969 Tropical Cyclone COLLEEN (1969027S08161)


IBTrACS version v04r00. Visit IBTrACS website for data access.
Please direct all questions to the IBTrACS Q and A forum

Storm track - Intensity - Wind Radii - Intensity Data - Source Data - All data

Summary Information

Storm ID 1969027S08161
Start Jan 27 05Z
Landfall Jan 27 18Z, Feb 1 17Z
Max Intensity 85 kt (Feb 2 00Z), 963 mb (Feb 1 17Z)
End Feb 7 12Z
ATCF IDs ,SH181969
Track status Best track data.

Storm track plot

Map of storm track

Intensity plots

Map of storm track

Radial wind information

No radial wind information for this storm


Position and Intensity Table

BASIN ISO_TIME_________ NATURE LAT LON WMO PRES BOM PRES DS824 WIND DS824 PRES NEUMANN WIND NEUMANN PRES
degrees north degrees east mb mb kts mb kts mb
SP 1969-01-27 05:00:00 NR -7.50 161.30 1003
SP 06:00:00 TS -7.50 161.19 1003 25 1003 25 1003
SP 09:00:00 TS -7.49 160.56 1003 25 1003 25 1003
SP 11:00:00 TS -7.49 160.13 1003 1003 25 1003 25 1003
SP 12:00:00 TS -7.50 159.93 1002 25 1003 25 1003
SP 15:00:00 TS -7.57 159.26 1002 25 1002 27 1002
SP 18:00:00 TS -7.68 158.60 1002 25 1002 30 1002
SP 21:00:00 TS -7.80 157.96 1002 25 1002 27 1002
SP 23:00:00 TS -7.90 157.56 1002 1002 25 1002 25 1002
SP 1969-01-28 00:00:00 TS -7.95 157.37 1001 25 1002 25 1002
SP 03:00:00 TS -8.12 156.87 1001 26 1001 25 1001
SP 06:00:00 TS -8.31 156.44 1001 27 1001 25 1001
SP 09:00:00 TS -8.52 156.04 1001 28 1001 25 1001
SP 11:00:00 TS -8.68 155.81 1001 1001 29 1001 25 1001
SP 12:00:00 TS -8.76 155.69 1000 30 1001 25 1001
SP 15:00:00 TS -9.05 155.35 1000 30 1000 27 1000
SP 17:00:00 TS -9.26 155.20 1000 1000 30 1000 29 1000
SP 18:00:00 TS -9.37 155.16 999 30 1000 30 1000
SP 21:00:00 TS -9.73 155.17 999 30 999 30 999
SP 23:00:00 TS -9.96 155.26 999 999 30 999 30 999
SP 1969-01-29 00:00:00 TS -10.07 155.31 998 30 999 30 999
SP 03:00:00 TS -10.35 155.49 996 33 997 35 997
SP 06:00:00 TS -10.60 155.72 994 37 995 40 995
SP 09:00:00 TS -10.83 155.97 993 41 993 42 993
SP 11:00:00 TS -10.98 156.14 992 992 43 992 44 992
SP 12:00:00 TS -11.06 156.23 991 45 992 45 992
SP 15:00:00 TS -11.28 156.46 989 47 990 47 990
SP 18:00:00 TS -11.47 156.73 988 988 50 988 50 988
SP 21:00:00 TS -11.62 157.06 988 988 50 987 50 987
SP 23:00:00 TS -11.77 157.32 987 987 50 987 50 987
SP 1969-01-30 00:00:00 TS -11.66 157.66 986 50 987 50 987
SP 03:00:00 TS -11.72 158.18 986 50 986 52 986
SP 05:00:00 TS -11.79 158.55 986 986 50 986 54 986
SP 06:00:00 TS -11.83 158.78 985 50 986 55 986
SP 09:00:00 TS -12.07 159.15 984 52 985 55 985
SP 11:00:00 TS -12.23 159.37 984 984 54 984 55 984
SP 12:00:00 TS -12.31 159.47 984 55 984 55 984
SP 15:00:00 TS -12.50 159.69 984 55 984 55 984
SP 18:00:00 TS -12.71 159.88 984 55 984 55 984
SP 21:00:00 TS -12.94 160.08 984 984 55 984 55 984
SP 23:00:00 TS -13.13 160.27 984 55 984 55 984
SP 1969-01-31 00:00:00 TS -13.23 160.39 983 55 984 55 984
SP 03:00:00 TS -13.57 160.89 983 55 983 57 983
SP 06:00:00 TS -13.97 161.48 982 55 983 60 982
SP 08:00:00 TS -14.28 161.88 982 55 982 60 982
SP 09:00:00 TS -14.44 162.07 982 55 982 60 982
SP 11:00:00 TS -14.78 162.46 982 55 982 60 982
SP 12:00:00 TS -14.94 162.64 981 55 982 60 982
SP 15:00:00 TS -15.37 163.13 980 57 980 62 980
SP 17:00:00 TS -15.70 163.44 979 59 979 64 979
SP 18:00:00 TS -15.90 163.61 978 60 979 65 979
SP 21:00:00 TS -16.61 164.14 976 62 976 67 977
SP 23:00:00 TS -17.15 164.49 975 64 975 69 975
SP 1969-02-01 00:00:00 TS -17.41 164.66 974 65 974 70 975
SP 03:00:00 TS -18.19 165.11 971 67 972 72 972
SP 05:00:00 TS -18.73 165.40 970 69 970 74 970
SP 06:00:00 TS -19.00 165.54 969 70 970 75 970
SP 09:00:00 TS -19.84 165.97 967 72 968 77 968
SP 11:00:00 TS -20.40 166.20 966 74 966 79 966
SP 12:00:00 TS -20.67 166.29 965 75 966 80 966
SP 15:00:00 TS -21.50 166.43 964 77 964 80 964
SP 17:00:00 TS -22.06 166.49 963 79 963 80 963
SP 18:00:00 TS -22.34 166.54 963 80 963 80 963
SP 21:00:00 TS -23.18 166.78 963 80 963 82 963
SP 23:00:00 TS -23.69 166.97 963 80 963 84 963
SP 1969-02-02 00:00:00 TS -23.92 167.07 963 80 963 85 963
SP 03:00:00 TS -24.45 167.45 963 80 963 82 963
SP 05:00:00 TS -24.73 167.69 964 80 963 80 963
SP 06:00:00 TS -24.87 167.80 964 80 964 80 964
SP 09:00:00 TS -25.29 168.03 965 77 965 80 965
SP 11:00:00 TS -25.57 168.11 966 75 965 80 965
SP 12:00:00 TS -25.71 168.13 966 75 966 80 966
SP 15:00:00 TS -26.19 168.08 968 73 967 77 967
SP 18:00:00 TS -26.69 167.91 970 72 969 75 969
SP 21:00:00 TS -27.19 167.69 971 71 971 72 971
SP 23:00:00 TS -27.50 167.51 973 70 972 70 972
SP 1969-02-03 00:00:00 TS -27.64 167.40 973 70 973 70 973
SP 03:00:00 TS -28.01 167.06 974 67 974 67 974
SP 05:00:00 TS -28.23 166.82 976 65 975 65 975
SP 06:00:00 TS -28.33 166.71 976 65 976 65 976
SP 09:00:00 TS -28.62 166.41 978 62 978 62 978
SP 11:00:00 TS -28.80 166.21 980 60 979 60 979
SP 12:00:00 TS -28.88 166.10 980 60 980 60 980
SP 15:00:00 TS -29.14 165.78 980 58 980 60 980
SP 18:00:00 TS -29.39 165.43 981 57 981 60 981
SP 21:00:00 TS -29.63 165.11 981 56 981 60 981
SP 23:00:00 TS -29.80 164.85 982 55 981 60 981
SP 1969-02-04 00:00:00 TS -29.88 164.70 982 55 982 60 982
SP 03:00:00 TS -30.14 164.02 984 52 984 57 984
SP 06:00:00 TS -30.39 163.31 986 50 986 55 986
SP 09:00:00 TS -30.63 162.65 988 47 988 50 988
SP 11:00:00 TS -30.77 162.32 990 45 989 46 989
SP 12:00:00 TS -30.82 162.19 990 45 990 45 990
SP 15:00:00 TS -30.97 162.31 990 45 990
SP 18:00:00 TS -31.10 162.77 990 45 990
SP 21:00:00 TS -31.20 163.29 990 45 990
SP 23:00:00 TS -31.25 163.72 990 45 990
SP 1969-02-05 00:00:00 TS -31.25 163.98 45 990
SP 03:00:00 TS -31.42 164.80 40
SP 06:00:00 TS -31.63 165.69 35
SP 09:00:00 TS -31.93 166.55 35
SP 12:00:00 TS -32.20 167.40 35
SP 15:00:00 TS -32.33 168.19 35
SP 18:00:00 TS -32.40 168.99 35
SP 21:00:00 TS -32.45 169.79 35
SP 1969-02-06 00:00:00 TS -32.50 170.70 35
SP 03:00:00 TS -32.59 171.78 35
SP 06:00:00 TS -32.70 172.99 35
SP 09:00:00 TS -32.83 174.25 35
SP 12:00:00 TS -33.00 175.60 35
SP 15:00:00 TS -33.18 176.98 35
SP 18:00:00 TS -33.40 178.45 35
SP 21:00:00 TS -33.67 179.96 35
SP 1969-02-07 00:00:00 TS -34.00 181.60 35
SP 03:00:00 TS -34.38 183.38 35
SP 06:00:00 TS -34.82 185.31 35
SP 09:00:00 TS -35.30 187.32 35
SP 12:00:00 TS -35.80 189.40 35

Source Information

Agency Information
USA bsh181969.txt
TOKYO
CMA
HKO
NEWDELHI
REUNION
BOM IDCKMSTM0S.csv:Line=5226:COLLEEN
NADI
WELLINGTON
DS824 aus_area.dat:432:COLLEEN
TD9636 cons_worldwide_trop_cyclone_18710101-19891231-006:Line=8123
TD9635
NEUMANN tracks.sh:Storm=236:COLLEEN:BSH1869:BM377
MLC

All available IBTrACS Data

SEASON BASIN SUBBASIN ISO_TIME_________ NATURE LAT LON WMO PRES WMO AGENCY DIST2LAND LANDFALL IFLAG USA AGENCY USA ATCF_ID USA LAT USA LON USA SSHS BOM LAT BOM LON BOM PRES BOM PRES_METHOD DS824 LAT DS824 LON DS824 STAGE DS824 WIND DS824 PRES TD9636 LAT TD9636 LON TD9636 STAGE NEUMANN LAT NEUMANN LON NEUMANN CLASS NEUMANN WIND NEUMANN PRES STORM SPEED STORM DIR
Year degrees north degrees east mb km km degrees north degrees east 1 degrees north degrees east mb degrees north degrees east kts mb degrees north degrees east degrees north degrees east kts mb kts degrees
1969 SP MM 1969-01-27 05:00:00 NR -7.50 161.30 114 110 ______O_______ -1 -7.50 161.30 1003 6 271
1969 SP MM 06:00:00 TS -7.50 161.19 110 100 ______P__O__O_ -1 -7.50 161.09 1003 -7.50 161.10 TC 25 1003 -7.50 161.50 TC 25 1003 11 271
1969 SP MM 09:00:00 TS -7.49 160.56 101 95 ______P__P__P_ -1 -7.49 160.44 1003 -7.49 160.45 TC 25 1003 -7.48 160.85 TC 25 1003 13 270
1969 SP MM 11:00:00 TS -7.49 160.13 1003 bom 89 85 ______O__P__P_ -1 -7.50 160.00 1003 -7.49 160.02 TC 25 1003 -7.49 160.42 TC 25 1003 13 268
1969 SP EA 12:00:00 TS -7.50 159.93 78 40 ______P__O__O_ -1 -7.51 159.78 1002 -7.50 159.80 TC 25 1003 -7.50 160.20 TC 25 1003 13 265
1969 SP EA 15:00:00 TS -7.57 159.26 40 0 ______P__P__P_ -1 -7.57 159.09 1002 -7.57 159.14 TC 25 1002 -7.58 159.55 TC 27 1002 13 262
1969 SP EA 18:00:00 TS -7.68 158.60 0 0 ______P__P__O_ -1 -7.67 158.42 1002 -7.68 158.49 TC 25 1002 -7.70 158.90 TC 30 1002 13 260
1969 SP EA 21:00:00 TS -7.80 157.96 55 22 ______P__P__P_ -1 -7.80 157.78 1002 -7.83 157.87 TC 25 1002 -7.79 158.22 TC 27 1002 13 258
1969 SP EA 23:00:00 TS -7.90 157.56 1002 bom 22 22 ______O__P__P_ -1 -7.90 157.40 1002 -7.94 157.48 TC 25 1002 -7.86 157.79 TC 25 1002 12 256
1969 SP EA 1969-01-28 00:00:00 TS -7.95 157.37 22 15 ______P__O__O_ -1 -7.95 157.22 1001 -8.00 157.30 TC 25 1002 -7.90 157.60 TC 25 1002 11 252
1969 SP EA 03:00:00 TS -8.12 156.87 39 39 ______P__P__P_ -1 -8.11 156.73 1001 -8.16 156.78 TC 26 1001 -8.08 157.11 TC 25 1001 10 248
1969 SP EA 06:00:00 TS -8.31 156.44 88 88 ______P__P__O_ -1 -8.30 156.30 1001 -8.34 156.32 TC 27 1001 -8.30 156.70 TC 25 1001 9 244
1969 SP EA 09:00:00 TS -8.52 156.04 134 134 ______P__P__P_ -1 -8.53 155.93 1001 -8.55 155.93 TC 28 1001 -8.48 156.28 TC 25 1001 9 240
1969 SP EA 11:00:00 TS -8.68 155.81 1001 bom 160 160 ______O__P__P_ -1 -8.70 155.70 1001 -8.71 155.70 TC 29 1001 -8.62 156.02 TC 25 1001 9 235
1969 SP EA 12:00:00 TS -8.76 155.69 174 174 ______P__O__O_ -1 -8.79 155.57 1000 -8.80 155.60 TC 30 1001 -8.70 155.90 TC 25 1001 9 231
1969 SP EA 15:00:00 TS -9.05 155.35 223 223 ______P__P__P_ -1 -9.08 155.23 1000 -9.08 155.28 TC 30 1000 -8.98 155.53 TC 27 1000 8 224
1969 SP EA 17:00:00 TS -9.26 155.20 1000 bom 246 246 ______O__P__P_ -1 -9.30 155.10 1000 -9.29 155.14 TC 30 1000 -9.19 155.35 TC 29 1000 8 211
1969 SP EA 18:00:00 TS -9.37 155.16 252 252 ______P__O__O_ -1 -9.41 155.07 999 -9.40 155.10 TC 30 1000 -9.30 155.30 TC 30 1000 7 0
1969 SP EA 21:00:00 TS -9.73 155.17 270 270 ______P__P__P_ -1 -9.77 155.11 999 -9.75 155.13 TC 30 999 -9.66 155.27 TC 30 999 7 170
1969 SP EA 23:00:00 TS -9.96 155.26 999 bom 282 282 ______O__P__P_ -1 -10.00 155.20 999 -9.99 155.24 TC 30 999 -9.89 155.35 TC 30 999 7 158
1969 SP EA 1969-01-29 00:00:00 TS -10.07 155.31 290 290 ______P__O__O_ -1 -10.10 155.24 998 -10.10 155.30 TC 30 999 -10.00 155.40 TC 30 999 7 150
1969 SP EA 03:00:00 TS -10.35 155.49 291 291 ______P__P__P_ -1 -10.38 155.42 996 -10.40 155.47 TC 33 997 -10.27 155.57 TC 35 997 7 143
1969 SP EA 06:00:00 TS -10.60 155.72 305 299 ______P__P__O_ -1 -10.63 155.65 994 -10.66 155.69 TC 37 995 -10.50 155.80 TC 40 995 7 136
1969 SP EA 09:00:00 TS -10.83 155.97 309 309 ______P__P__P_ -1 -10.86 155.92 993 -10.89 155.94 TC 41 993 -10.76 156.04 TC 42 993 7 133
1969 SP EA 11:00:00 TS -10.98 156.14 992 bom 325 321 ______O__P__P_ -1 -11.00 156.10 992 -11.03 156.11 TC 43 992 -10.92 156.21 TC 44 992 7 132
1969 SP EA 12:00:00 TS -11.06 156.23 330 324 ______P__O__O_ -1 -11.08 156.18 991 -11.10 156.20 TC 45 992 -11.00 156.30 TC 45 992 7 133
1969 SP EA 15:00:00 TS -11.28 156.46 334 334 ______P__P__P_ -1 -11.32 156.43 989 -11.31 156.43 TC 47 990 -11.21 156.54 TC 47 990 6 129
1969 SP EA 18:00:00 TS -11.47 156.73 988 bom 346 339 ______O__O__O_ -1 -11.50 156.70 988 -11.50 156.70 TC 50 988 -11.40 156.80 TC 50 988 7 121
1969 SP EA 21:00:00 TS -11.62 157.06 988 bom 344 344 ______O__P__P_ -1 -11.60 157.00 988 -11.66 157.04 TC 50 987 -11.62 157.13 TC 50 987 8 118
1969 SP EA 23:00:00 TS -11.77 157.32 987 bom 353 321 ______O__P__P_ -1 -11.80 157.30 987 -11.75 157.28 TC 50 987 -11.74 157.38 TC 50 987 12 93
1969 SP EA 1969-01-30 00:00:00 TS -11.66 157.66 313 275 O_____P__OO_O_ jtwc_sh SH181969 -11.00 158.50 -1 -11.87 157.43 986 -11.80 157.40 TC 50 987 -11.00 158.50 2 -11.80 157.50 TC 50 987 13 87
1969 SP EA 03:00:00 TS -11.72 158.18 275 265 P_____P__PP_P_ SH181969 -11.30 158.97 -1 -11.95 157.78 986 -11.95 157.74 TC 50 986 -11.31 158.98 2 -11.90 157.84 TC 52 986 11 99
1969 SP EA 05:00:00 TS -11.79 158.55 986 bom 259 254 P_____O__PP_P_ SH181969 -11.50 159.26 -1 -12.00 158.00 986 -12.05 157.98 TC 50 986 -11.52 159.29 2 -11.96 158.08 TC 54 986 12 100
1969 SP EA 06:00:00 TS -11.83 158.78 249 249 O_____P__OP_O_ jtwc_sh SH181969 -11.60 159.40 -1 -12.06 158.13 985 -12.10 158.10 TC 50 986 -11.62 159.43 2 -12.00 158.20 TC 55 986 10 116
1969 SP EA 09:00:00 TS -12.07 159.15 265 263 P_____P__PP_P_ SH181969 -11.90 159.76 -1 -12.26 158.53 984 -12.25 158.49 TC 52 985 -11.92 159.78 2 -12.20 158.60 TC 55 985 9 125
1969 SP EA 11:00:00 TS -12.23 159.37 984 bom 272 272 P_____O__PP_P_ SH181969 -12.10 159.94 -1 -12.40 158.80 984 -12.35 158.76 TC 54 984 -12.11 159.94 2 -12.34 158.87 TC 55 984 8 127
1969 SP EA 12:00:00 TS -12.31 159.47 281 281 O_____P__OO_O_ jtwc_sh SH181969 -12.20 160.00 -1 -12.44 158.92 984 -12.40 158.90 TC 55 984 -12.20 160.00 2 -12.40 159.00 TC 55 984 6 132
1969 SP EA 15:00:00 TS -12.50 159.69 289 289 P_____P__PP_P_ SH181969 -12.50 160.08 -1 -12.52 159.26 984 -12.54 159.29 TC 55 984 -12.47 160.07 2 -12.50 159.35 TC 55 984 6 135
1969 SP EA 18:00:00 TS -12.71 159.88 292 292 O_____P__PP_O_ jtwc_sh SH181969 -12.80 160.10 -1 -12.61 159.61 984 -12.68 159.68 TC 55 984 -12.75 160.07 2 -12.60 159.70 TC 55 984 6 139
1969 SP MM 21:00:00 TS -12.94 160.08 984 bom 299 299 P_____O__PP_P_ SH181969 -13.08 160.11 -1 -12.80 160.00 984 -12.86 160.08 TC 55 984 -13.05 160.11 2 -12.76 160.09 TC 55 984 7 138
1969 SP MM 23:00:00 TS -13.13 160.27 304 304 P_____O__PP_P_ SH181969 -13.29 160.20 -1 -13.00 160.30 984 -13.01 160.36 TC 55 984 -13.28 160.21 2 -12.91 160.36 TC 55 984 8 134
1969 SP MM 1969-01-31 00:00:00 TS -13.23 160.39 308 308 O_____P__OO_O_ jtwc_sh SH181969 -13.40 160.30 -1 -13.10 160.45 983 -13.10 160.50 TC 55 984 -13.40 160.30 2 -13.00 160.50 TC 55 984 11 126
1969 SP MM 03:00:00 TS -13.57 160.89 328 325 P_____P__PP_P_ SH181969 -13.76 160.87 -1 -13.39 160.91 983 -13.39 160.95 TC 55 983 -13.81 160.82 2 -13.32 160.94 TC 57 983 13 125
1969 SP MM 06:00:00 TS -13.97 161.48 359 359 O_____P__PP_O_ jtwc_sh SH181969 -14.20 161.60 -1 -13.72 161.38 982 -13.74 161.42 TC 55 983 -14.28 161.49 2 -13.70 161.40 TC 60 982 14 126
1969 SP MM 08:00:00 TS -14.28 161.88 391 391 P_____O__PP_P_ SH181969 -14.55 162.05 -1 -14.00 161.70 982 -14.01 161.74 TC 55 982 -14.61 161.98 2 -13.96 161.73 TC 60 982 15 129
1969 SP MM 09:00:00 TS -14.44 162.07 403 403 P_____P__PP_P_ SH181969 -14.74 162.28 -1 -14.16 161.87 982 -14.15 161.91 TC 55 982 -14.78 162.22 2 -14.09 161.89 TC 60 982 15 131
1969 SP MM 11:00:00 TS -14.78 162.46 430 419 P_____O__PP_P_ SH181969 -15.11 162.71 -1 -14.50 162.20 982 -14.44 162.23 TC 55 982 -15.12 162.68 2 -14.36 162.23 TC 60 982 15 132
1969 SP MM 12:00:00 TS -14.94 162.64 419 369 O_____P__OO_O_ jtwc_sh SH181969 -15.30 162.90 -1 -14.63 162.36 981 -14.60 162.40 TC 55 982 -15.30 162.90 2 -14.50 162.40 TC 60 982 13 132
1969 SP MM 15:00:00 TS -15.37 163.13 371 343 P_____P__PP_P_ SH181969 -15.79 163.39 -1 -14.97 162.84 980 -15.04 162.89 TC 57 980 -15.80 163.40 2 -14.82 162.87 TC 62 980 13 135
1969 SP MM 17:00:00 TS -15.70 163.44 344 324 P_____O__PP_P_ SH181969 -16.12 163.67 -1 -15.30 163.20 979 -15.40 163.23 TC 59 979 -16.14 163.69 2 -15.10 163.21 TC 64 979 14 139
1969 SP MM 18:00:00 TS -15.90 163.61 326 294 O_____P__OP_O_ jtwc_sh SH181969 -16.30 163.80 -1 -15.56 163.42 978 -15.60 163.40 TC 60 979 -16.32 163.83 2 -15.30 163.40 TC 65 979 17 144
1969 SP MM 21:00:00 TS -16.61 164.14 299 288 P_____P__PP_P_ SH181969 -16.87 164.21 -1 -16.52 164.15 976 -16.36 163.97 TC 62 976 -16.88 164.22 2 -16.18 164.11 TC 67 977 18 146
1969 SP MM 23:00:00 TS -17.15 164.49 291 291 P_____O__PP_P_ SH181969 -17.28 164.47 -1 -17.20 164.60 975 -16.95 164.36 TC 64 975 -17.29 164.47 2 -16.87 164.58 TC 69 975 19 148
1969 SP MM 1969-02-01 00:00:00 TS -17.41 164.66 293 251 O_____P__PO_O_ jtwc_sh SH181969 -17.50 164.60 -1 -17.49 164.78 974 -17.27 164.55 TC 65 974 -17.50 164.60 2 -17.20 164.80 TC 70 975 18 150
1969 SP MM 03:00:00 TS -18.19 165.11 243 202 P_____P__PP_P_ SH181969 -18.17 165.00 -1 -18.34 165.24 971 -18.24 165.11 TC 67 972 -18.17 165.04 2 -18.06 165.30 TC 72 972 18 152
1969 SP MM 05:00:00 TS -18.73 165.40 202 179 P_____O__PP_P_ SH181969 -18.65 165.27 -1 -18.90 165.50 970 -18.89 165.45 TC 69 970 -18.65 165.33 2 -18.62 165.57 TC 74 970 18 154
1969 SP MM 06:00:00 TS -19.00 165.54 179 133 O_____P__OP_O_ jtwc_sh SH181969 -18.90 165.40 -1 -19.21 165.66 969 -19.20 165.60 TC 70 970 -18.90 165.47 2 -18.90 165.70 TC 75 970 19 154
1969 SP MM 09:00:00 TS -19.84 165.97 139 106 P_____P__PP_P_ SH181969 -19.66 165.82 -1 -20.14 166.11 967 -20.07 166.02 TC 72 968 -19.68 165.86 2 -19.82 166.17 TC 77 968 18 156
1969 SP MM 11:00:00 TS -20.40 166.20 106 98 P_____O__PP_P_ SH181969 -20.21 166.08 -1 -20.70 166.30 966 -20.63 166.23 TC 74 966 -20.22 166.09 2 -20.42 166.41 TC 79 966 18 160
1969 SP MM 12:00:00 TS -20.67 166.29 91 22 O_____P__OO_O_ jtwc_sh SH181969 -20.50 166.20 -1 -20.93 166.33 965 -20.90 166.30 TC 75 966 -20.50 166.20 2 -20.70 166.50 TC 80 966 17 169
1969 SP MM 15:00:00 TS -21.50 166.43 22 0 P_____O__PP_P_ SH181969 -21.45 166.49 -1 -21.60 166.30 964 -21.66 166.35 TC 77 964 -21.41 166.43 2 -21.41 166.51 TC 80 964 17 172
1969 SP MM 17:00:00 TS -22.06 166.49 0 0 P_____O__PP_P_ SH181969 -22.09 166.64 -1 -22.10 166.30 963 -22.16 166.37 TC 79 963 -22.04 166.55 2 -21.87 166.48 TC 80 963 17 173
1969 SP MM 18:00:00 TS -22.34 166.54 10 10 O_____P__OP_O_ jtwc_sh SH181969 -22.40 166.70 -1 -22.37 166.36 963 -22.40 166.40 TC 80 963 -22.35 166.60 2 -22.10 166.50 TC 80 963 17 167
1969 SP MM 21:00:00 TS -23.18 166.78 89 89 P_____P__PP_P_ SH181969 -23.27 166.82 -1 -23.20 166.71 963 -23.19 166.72 TC 80 963 -23.23 166.78 2 -22.93 166.80 TC 82 963 17 164
1969 SP MM 23:00:00 TS -23.69 166.97 145 145 P_____O__PP_P_ SH181969 -23.78 166.92 -1 -23.70 167.00 963 4 -23.68 166.98 TC 80 963 -23.76 166.92 2 -23.46 167.07 TC 84 963 16 160
1969 SP MM 1969-02-02 00:00:00 TS -23.92 167.07 168 168 O_____P__OO_O_ jtwc_sh SH181969 -24.00 167.00 -1 -23.90 167.12 963 -23.90 167.10 TC 80 963 -24.00 167.00 2 -23.70 167.20 TC 85 963 13 150
1969 SP MM 03:00:00 TS -24.45 167.45 229 229 P_____P__PP_P_ SH181969 -24.51 167.42 -1 -24.41 167.45 963 -24.44 167.40 TC 80 963 -24.55 167.45 2 -24.25 167.55 TC 82 963 12 145
1969 SP MM 05:00:00 TS -24.73 167.69 269 269 P_____O__PP_P_ SH181969 -24.77 167.75 -1 -24.70 167.60 964 -24.75 167.55 TC 80 963 -24.85 167.77 2 -24.55 167.74 TC 80 963 11 144
1969 SP MM 06:00:00 TS -24.87 167.80 294 294 O_____P__OP_O_ jtwc_sh SH181969 -24.90 167.90 -1 -24.85 167.64 964 -24.90 167.60 TC 80 964 -24.98 167.93 2 -24.70 167.80 TC 80 964 10 151
1969 SP MM 09:00:00 TS -25.29 168.03 342 342 P_____P__PP_P_ SH181969 -25.30 168.34 -1 -25.30 167.65 965 -25.35 167.65 TC 77 965 -25.34 168.35 2 -25.15 167.86 TC 80 965 9 158
1969 SP MM 11:00:00 TS -25.57 168.11 377 377 P_____O__PP_P_ SH181969 -25.56 168.55 -1 -25.60 167.60 966 -25.65 167.62 TC 75 965 -25.58 168.54 2 -25.45 167.83 TC 80 965 9 169
1969 SP MM 12:00:00 TS -25.71 168.13 388 388 O_____P__OO_O_ jtwc_sh SH181969 -25.70 168.60 -1 -25.77 167.59 966 -25.80 167.60 TC 75 966 -25.70 168.60 2 -25.60 167.80 TC 80 966 9 182
1969 SP MM 15:00:00 TS -26.19 168.08 441 441 P_____P__PP_P_ SH181969 -26.14 168.56 -1 -26.31 167.56 968 -26.31 167.55 TC 73 967 -26.17 168.56 2 -26.09 167.72 TC 77 967 10 191
1969 SP MM 18:00:00 TS -26.69 167.91 491 491 O_____P__PP_O_ jtwc_sh SH181969 -26.60 168.30 -1 -26.87 167.48 970 -26.84 167.46 TC 72 969 -26.64 168.34 2 -26.60 167.60 TC 75 969 11 199
1969 SP MM 21:00:00 TS -27.19 167.69 542 542 P_____P__PP_P_ SH181969 -27.07 167.99 -1 -27.39 167.34 971 -27.35 167.31 TC 71 971 -27.09 168.00 2 -27.17 167.53 TC 72 971 11 204
1969 SP MM 23:00:00 TS -27.50 167.51 573 573 P_____O__PP_P_ SH181969 -27.36 167.73 -1 -27.70 167.20 973 -27.66 167.18 TC 70 972 -27.37 167.74 2 -27.54 167.46 TC 70 972 10 210
1969 SP MM 1969-02-03 00:00:00 TS -27.64 167.40 583 583 O_____P__OO_O_ jtwc_sh SH181969 -27.50 167.60 -1 -27.83 167.11 973 -27.80 167.10 TC 70 973 -27.50 167.60 2 -27.70 167.40 TC 70 973 10 218
1969 SP MM 03:00:00 TS -28.01 167.06 625 625 P_____P__PP_P_ SH181969 -27.88 167.21 -1 -28.19 166.80 974 -28.17 166.80 TC 67 974 -27.85 167.23 2 -28.09 167.12 TC 67 974 9 221
1969 SP MM 05:00:00 TS -28.23 166.82 647 647 P_____O__PP_P_ SH181969 -28.10 166.94 -1 -28.40 166.60 976 -28.39 166.59 TC 65 975 -28.06 166.97 2 -28.30 166.90 TC 65 975 9 224
1969 SP MM 06:00:00 TS -28.33 166.71 659 659 O_____P__OP_O_ jtwc_sh SH181969 -28.20 166.80 -1 -28.51 166.53 976 -28.50 166.50 TC 65 976 -28.16 166.83 2 -28.40 166.80 TC 65 976 8 223
1969 SP MM 09:00:00 TS -28.62 166.41 693 693 P_____P__PP_P_ SH181969 -28.46 166.39 -1 -28.81 166.34 978 -28.81 166.30 TC 62 978 -28.44 166.41 2 -28.71 166.61 TC 62 978 8 223
1969 SP MM 11:00:00 TS -28.80 166.21 716 716 P_____O__PP_P_ SH181969 -28.62 166.13 -1 -29.00 166.20 980 -29.01 166.17 TC 60 979 -28.61 166.13 2 -28.91 166.48 TC 60 979 8 225
1969 SP MM 12:00:00 TS -28.88 166.10 728 728 O_____P__OO_O_ jtwc_sh SH181969 -28.70 166.00 -1 -29.09 166.11 980 -29.10 166.10 TC 60 980 -28.70 166.00 2 -29.00 166.40 TC 60 980 8 228
1969 SP MM 15:00:00 TS -29.14 165.78 753 753 P_____P__PP_P_ SH181969 -28.95 165.64 -1 -29.35 165.78 980 -29.36 165.80 TC 58 980 -28.97 165.72 2 -29.26 166.07 TC 60 980 8 229
1969 SP MM 18:00:00 TS -29.39 165.43 792 792 O_____P__PP_O_ jtwc_sh SH181969 -29.20 165.30 -1 -29.59 165.42 981 -29.61 165.43 TC 57 981 -29.23 165.45 2 -29.50 165.70 TC 60 981 8 230
1969 SP MM 21:00:00 TS -29.63 165.11 819 819 P_____P__PP_P_ SH181969 -29.46 165.06 -1 -29.83 165.04 981 -29.85 165.06 TC 56 981 -29.47 165.10 2 -29.74 165.34 TC 60 981 8 231
1969 SP MM 23:00:00 TS -29.80 164.85 845 845 P_____O__PP_P_ SH181969 -29.62 164.80 -1 -30.00 164.80 982 -30.01 164.81 TC 55 981 -29.62 164.79 2 -29.91 165.11 TC 60 981 9 235
1969 SP MM 1969-02-04 00:00:00 TS -29.88 164.70 861 861 O_____P__OO_O_ jtwc_sh SH181969 -29.70 164.60 -1 -30.10 164.68 982 -30.10 164.70 TC 55 982 -29.70 164.60 2 -30.00 165.00 TC 60 982 12 245
1969 SP MM 03:00:00 TS -30.14 164.02 901 901 P_____P__PP_P_ SH181969 -29.91 163.55 -1 -30.41 164.35 984 -30.38 164.40 TC 52 984 -29.93 163.59 2 -30.29 164.68 TC 57 984 13 247
1969 SP MM 06:00:00 TS -30.39 163.31 950 897 O_____P__PP_O_ jtwc_sh SH181969 -30.10 162.40 -1 -30.72 164.05 986 -30.67 164.14 TC 50 986 -30.15 162.48 2 -30.60 164.40 TC 55 986 13 247
1969 SP MM 09:00:00 TS -30.63 162.65 897 864 P_____P__PP_P_ SH181969 -30.31 161.44 -1 -31.02 163.81 988 -30.98 163.91 TC 47 988 -30.34 161.52 2 -30.92 164.11 TC 50 988 11 246
1969 SP MM 11:00:00 TS -30.77 162.32 864 854 P_____O__PP_P_ SH181969 -30.44 161.06 -1 -31.20 163.70 990 -31.19 163.77 TC 45 989 -30.45 161.11 2 -31.11 163.95 TC 46 989 9 244
1969 SP MM 12:00:00 TS -30.82 162.19 854 847 O_____P__OO_O_ jtwc_sh SH181969 -30.50 161.00 -1 -31.28 163.66 990 -31.30 163.70 TC 45 990 -30.50 161.00 2 -31.20 163.90 TC 45 990 3 185
1969 SP MM 15:00:00 TS -30.97 162.31 868 868 P_____P___P_P_ SH181969 -30.66 161.42 -1 -31.51 163.60 990 TC -30.62 161.26 2 -31.41 163.86 TC 45 990 6 119
1969 SP MM 18:00:00 TS -31.10 162.77 917 917 O_____P___P_O_ jtwc_sh SH181969 -30.80 162.30 -1 -31.71 163.60 990 TC -30.72 161.98 2 -31.60 163.90 TC 45 990 9 105
1969 SP MM 21:00:00 TS -31.20 163.29 941 907 P_____P___P_P_ SH181969 -30.88 163.12 -1 -31.89 163.66 990 TC -30.84 162.95 2 -31.85 163.76 TC 45 990 10 101
1969 SP MM 23:00:00 TS -31.25 163.72 907 890 P_____O___P_P_ SH181969 -30.95 163.71 -1 -32.00 163.70 990 TC -30.94 163.66 2 -31.97 163.80 TC 45 990 12 95
1969 SP MM 1969-02-05 00:00:00 TS -31.25 163.98 881 804 O_________O_O_ jtwc_sh SH181969 -31.00 164.00 -1 -31.00 164.00 2 -32.00 163.90 TC 45 990 14 100
1969 SP MM 03:00:00 TS -31.42 164.80 804 726 P_________P_P_ SH181969 -31.27 164.85 -1 -31.29 164.82 2 -31.84 164.68 TC 40 15 104
1969 SP MM 06:00:00 TS -31.63 165.69 718 636 O_________P_O_ jtwc_sh SH181969 -31.60 165.70 -1 -31.61 165.67 2 -31.70 165.70 TC 35 16 109
1969 SP MM 09:00:00 TS -31.93 166.55 627 545 P_________P_P_ SH181969 -31.93 166.56 -1 -31.94 166.54 2 -31.91 166.56 TC 35 16 112
1969 SP MM 12:00:00 TS -32.20 167.40 545 483 O_________O_O_ jtwc_sh SH181969 -32.20 167.40 -1 -32.20 167.40 2 -32.20 167.40 TC 35 14 106
1969 SP MM 15:00:00 TS -32.33 168.19 475 414 P_________P_P_ SH181969 -32.34 168.20 -1 -32.33 168.17 2 -32.33 168.20 TC 35 14 98
1969 SP MM 18:00:00 TS -32.40 168.99 407 356 O_________P_O_ jtwc_sh SH181969 -32.40 169.00 -1 -32.39 168.94 2 -32.40 169.00 TC 35 14 95
1969 SP MM 21:00:00 TS -32.45 169.79 349 289 P_________P_P_ SH181969 -32.45 169.81 -1 -32.44 169.77 2 -32.45 169.78 TC 35 14 94
1969 SP MM 1969-02-06 00:00:00 TS -32.50 170.70 283 227 O_________O_O_ jtwc_sh SH181969 -32.50 170.70 -1 -32.50 170.70 2 -32.50 170.70 TC 35 17 95
1969 SP MM 03:00:00 TS -32.59 171.78 224 200 P_________P_P_ SH181969 -32.58 171.73 -1 -32.59 171.77 2 -32.59 171.90 TC 35 19 96
1969 SP MM 06:00:00 TS -32.70 172.99 200 195 O_________P_O_ jtwc_sh SH181969 -32.70 172.90 -1 -32.69 172.95 2 -32.70 173.20 TC 35 21 97
1969 SP MM 09:00:00 TS -32.83 174.25 224 224 P_________P_P_ SH181969 -32.83 174.21 -1 -32.83 174.24 2 -32.83 174.36 TC 35 22 98
1969 SP MM 12:00:00 TS -33.00 175.60 276 276 O_________O_O_ jtwc_sh SH181969 -33.00 175.60 -1 -33.00 175.60 2 -33.00 175.60 TC 35 23 99
1969 SP MM 15:00:00 TS -33.18 176.98 340 340 P_________P_P_ SH181969 -33.18 176.96 -1 -33.17 176.95 2 -33.18 177.06 TC 35 24 99
1969 SP MM 18:00:00 TS -33.40 178.45 428 428 O_________P_O_ jtwc_sh SH181969 -33.40 178.40 -1 -33.39 178.39 2 -33.40 178.60 TC 35 25 101
1969 SP MM 21:00:00 TS -33.67 179.96 460 460 P_________P_P_ SH181969 -33.67 179.94 -1 -33.66 179.94 2 -33.67 -179.97 TC 35 27 103
1969 SP MM 1969-02-07 00:00:00 TS -34.00 181.60 492 492 O_________O_O_ jtwc_sh SH181969 -34.00 -178.40 -1 -34.00 -178.40 2 -34.00 -178.40 TC 35 29 104
1969 SP MM 03:00:00 TS -34.38 183.38 565 565 P_________P_P_ SH181969 -34.37 -176.67 -1 -34.41 -176.60 2 -34.37 -176.52 TC 35 32 105
1969 SP MM 06:00:00 TS -34.82 185.31 680 680 O_________P_O_ jtwc_sh SH181969 -34.80 -174.80 -1 -34.86 -174.68 2 -34.80 -174.50 TC 35 34 106
1969 SP MM 09:00:00 TS -35.30 187.32 820 820 P_________P_P_ SH181969 -35.29 -172.76 -1 -35.34 -172.67 2 -35.29 -172.53 TC 35 35 106
1969 SP MM 12:00:00 TS -35.80 189.40 982 O_________O_O_ jtwc_sh SH181969 -35.80 -170.60 -1 -35.80 -170.60 2 -35.80 -170.60 TC 35 35 106